createdAt,value
2023-03-12T00:01:34.455Z,2.77
2023-03-12T00:04:58.327Z,2.60
2023-03-12T00:08:20.115Z,2.80
2023-03-12T00:11:43.443Z,2.70
2023-03-12T00:15:06.507Z,2.90
2023-03-12T00:18:28.333Z,3.23
2023-03-12T00:21:55.293Z,2.73
2023-03-12T00:25:28.482Z,2.73
2023-03-12T00:28:51.789Z,2.60
2023-03-12T00:32:14.274Z,2.60
2023-03-12T00:35:38.620Z,2.90
2023-03-12T00:39:01.789Z,3.00
2023-03-12T00:42:23.693Z,2.87
2023-03-12T00:45:48.610Z,2.83
2023-03-12T00:49:11.695Z,2.50
2023-03-12T00:52:40.344Z,2.67
2023-03-12T00:56:04.746Z,2.60
2023-03-12T00:59:31.641Z,3.07
2023-03-12T01:02:55.785Z,2.60
2023-03-12T01:06:17.854Z,3.60
2023-03-12T01:09:39.702Z,3.10
2023-03-12T01:13:02.015Z,2.63
2023-03-12T01:16:28.085Z,2.87
2023-03-12T01:19:49.915Z,2.60
2023-03-12T01:23:11.813Z,3.10
2023-03-12T01:26:33.646Z,2.70
2023-03-12T01:29:55.865Z,3.10
2023-03-12T01:33:18.480Z,3.13
2023-03-12T01:36:42.388Z,3.10
2023-03-12T01:40:20.585Z,3.30
2023-03-12T01:43:43.064Z,3.87
2023-03-12T01:47:05.066Z,3.07
2023-03-12T01:50:26.959Z,2.97
2023-03-12T01:54:00.338Z,3.40
2023-03-12T01:57:34.375Z,3.33
2023-03-12T02:00:56.367Z,3.07
2023-03-12T02:04:26.446Z,3.23
2023-03-12T02:07:49.179Z,3.37
2023-03-12T02:11:12.046Z,3.30
2023-03-12T02:14:36.378Z,3.30
2023-03-12T02:17:59.393Z,3.30
2023-03-12T02:21:30.349Z,3.30
2023-03-12T02:25:30.270Z,3.63
2023-03-12T02:28:56.409Z,3.50
2023-03-12T02:32:26.478Z,3.07
2023-03-12T02:35:51.388Z,2.93
2023-03-12T02:39:13.590Z,3.33
2023-03-12T02:42:35.949Z,3.17
2023-03-12T02:45:59.023Z,3.50
2023-03-12T02:49:31.897Z,3.43
2023-03-12T02:52:54.632Z,3.43
2023-03-12T02:56:26.037Z,3.50
2023-03-12T02:59:48.309Z,3.37
2023-03-12T03:03:10.606Z,4.93
2023-03-12T03:06:37.847Z,3.77
2023-03-12T03:10:07.812Z,4.07
2023-03-12T03:13:33.582Z,3.57
2023-03-12T03:17:13.730Z,3.97
2023-03-12T03:20:39.734Z,4.27
2023-03-12T03:24:01.723Z,4.20
2023-03-12T03:27:23.513Z,3.87
2023-03-12T03:30:45.989Z,4.23
2023-03-12T03:34:08.170Z,4.53
2023-03-12T03:37:30.022Z,4.53
2023-03-12T03:40:55.129Z,3.87
2023-03-12T03:44:17.085Z,3.93
2023-03-12T03:47:39.026Z,4.30
2023-03-12T03:51:06.811Z,4.20
2023-03-12T03:54:31.074Z,4.60
2023-03-12T03:57:54.018Z,4.80
2023-03-12T04:01:16.040Z,4.77
2023-03-12T04:04:39.339Z,4.90
2023-03-12T04:08:03.239Z,5.20
2023-03-12T04:11:27.855Z,5.20
2023-03-12T04:14:53.164Z,4.87
2023-03-12T04:18:19.885Z,5.80
2023-03-12T04:21:43.496Z,5.27
2023-03-12T04:25:08.088Z,5.90
2023-03-12T04:28:30.886Z,5.93
2023-03-12T04:31:54.370Z,7.00
2023-03-12T04:35:16.923Z,7.00
2023-03-12T04:38:38.987Z,7.73
2023-03-12T04:42:02.649Z,7.27
2023-03-12T04:45:25.954Z,7.33
2023-03-12T04:48:48.043Z,7.50
2023-03-12T04:52:11.602Z,8.40
2023-03-12T04:55:33.585Z,7.77
2023-03-12T04:58:55.683Z,7.67
2023-03-12T05:02:19.652Z,8.20
2023-03-12T05:05:42.649Z,8.43
2023-03-12T05:09:05.301Z,8.13
2023-03-12T05:12:27.566Z,9.03
2023-03-12T05:15:51.371Z,8.13
2023-03-12T05:19:14.967Z,8.40
2023-03-12T05:22:37.886Z,8.27
2023-03-12T05:25:59.966Z,8.93
2023-03-12T05:29:23.343Z,8.00
2023-03-12T05:32:45.720Z,8.43
2023-03-12T05:36:10.095Z,8.60
2023-03-12T05:39:33.364Z,8.77
2023-03-12T05:42:59.386Z,8.40
2023-03-12T05:46:25.700Z,8.27
2023-03-12T05:49:47.872Z,9.60
2023-03-12T05:53:12.318Z,9.47
2023-03-12T05:56:37.184Z,8.70
2023-03-12T05:59:59.511Z,10.63
2023-03-12T06:03:22.523Z,9.13
2023-03-12T06:06:46.663Z,8.97
2023-03-12T06:10:10.235Z,9.50
2023-03-12T06:13:32.748Z,8.97
2023-03-12T06:16:54.706Z,10.10
2023-03-12T06:20:17.187Z,9.87
2023-03-12T06:23:40.647Z,9.40
2023-03-12T06:27:04.320Z,9.27
2023-03-12T06:30:27.542Z,10.57
2023-03-12T06:33:49.787Z,9.93
2023-03-12T06:37:11.970Z,10.50
2023-03-12T06:40:33.788Z,9.97
2023-03-12T06:43:55.708Z,9.80
2023-03-12T06:47:17.928Z,10.40
2023-03-12T06:50:39.716Z,9.73
2023-03-12T06:59:09.259Z,10.37
2023-03-12T07:02:31.251Z,9.67
2023-03-12T07:05:57.931Z,9.97
2023-03-12T07:09:21.012Z,9.80
2023-03-12T07:12:46.076Z,9.20
2023-03-12T07:16:14.327Z,10.13
2023-03-12T07:19:36.360Z,11.20
2023-03-12T07:23:00.097Z,22.20
2023-03-12T07:26:23.449Z,11.17
2023-03-12T07:29:48.020Z,11.57
2023-03-12T07:33:12.946Z,10.00
2023-03-12T07:36:34.968Z,10.00
2023-03-12T07:39:57.008Z,9.97
2023-03-12T07:43:21.563Z,9.77
2023-03-12T07:46:44.723Z,10.80
2023-03-12T07:50:08.294Z,9.90
2023-03-12T07:53:31.240Z,10.73
2023-03-12T07:56:53.104Z,9.87
2023-03-12T08:00:15.365Z,10.13
2023-03-12T08:03:38.811Z,10.83
2023-03-12T08:07:02.753Z,10.50
2023-03-12T08:10:24.781Z,10.63
2023-03-12T08:13:46.747Z,9.73
2023-03-12T08:17:09.525Z,10.43
2023-03-12T08:20:31.537Z,11.10
2023-03-12T08:23:53.417Z,9.87
2023-03-12T08:27:16.378Z,10.20
2023-03-12T08:30:40.232Z,10.63
2023-03-12T08:34:02.073Z,10.63
2023-03-12T08:37:23.928Z,10.93
2023-03-12T08:41:00.660Z,9.63
2023-03-12T08:44:26.975Z,10.57
2023-03-12T08:47:50.230Z,11.10
2023-03-12T08:51:12.173Z,9.87
2023-03-12T08:54:34.105Z,10.83
2023-03-12T08:57:56.701Z,9.73
2023-03-12T09:01:18.613Z,9.67
2023-03-12T09:04:40.636Z,9.03
2023-03-12T09:08:02.597Z,8.73
2023-03-12T09:11:24.460Z,9.00
2023-03-12T09:15:03.754Z,8.57
2023-03-12T09:18:26.321Z,8.50
2023-03-12T09:21:48.190Z,8.47
2023-03-12T09:25:11.345Z,12.93
2023-03-12T09:28:35.195Z,11.33
2023-03-12T09:31:57.473Z,9.30
2023-03-12T09:35:19.477Z,6.33
2023-03-12T09:38:42.371Z,6.90
2023-03-12T09:42:20.458Z,6.50
2023-03-12T09:45:47.229Z,6.67
2023-03-12T09:49:46.513Z,5.85
2023-03-12T09:53:27.382Z,6.57
2023-03-12T09:56:52.530Z,5.70
2023-03-12T10:00:21.795Z,5.00
2023-03-12T10:04:27.263Z,7.47
2023-03-12T10:08:07.561Z,6.95
2023-03-12T10:12:02.356Z,69.57
2023-03-12T10:15:51.228Z,8.63
2023-03-12T10:19:37.440Z,10.40
2023-03-12T10:23:16.679Z,8.32
2023-03-12T10:26:49.223Z,4.53
2023-03-12T10:30:28.691Z,4.65
2023-03-12T10:34:03.337Z,3.80
2023-03-12T10:37:38.282Z,3.50
2023-03-12T10:41:01.156Z,2.75
2023-03-12T10:44:25.498Z,2.92
2023-03-12T10:47:57.211Z,3.38
2023-03-12T10:51:19.153Z,2.20
2023-03-12T10:54:46.906Z,2.30
2023-03-12T10:58:24.070Z,3.33
2023-03-12T11:01:51.441Z,3.65
2023-03-12T11:05:29.577Z,3.28
2023-03-12T11:09:17.041Z,2.90
2023-03-12T11:13:05.551Z,2.88
2023-03-12T11:16:31.964Z,3.53
2023-03-12T11:19:54.783Z,3.10
2023-03-12T11:23:24.079Z,2.40
2023-03-12T11:27:42.535Z,3.00
2023-03-12T11:31:15.596Z,2.63
2023-03-12T11:34:39.828Z,4.80
2023-03-12T11:38:24.404Z,7.63
2023-03-12T11:42:13.547Z,23.52
2023-03-12T11:46:16.390Z,301.27
2023-03-12T11:49:59.714Z,38.67
2023-03-12T11:53:51.820Z,10.85
2023-03-12T11:57:13.692Z,24.42
2023-03-12T12:00:54.911Z,16.33
2023-03-12T12:04:51.683Z,36.15
2023-03-12T12:08:19.471Z,11.77
2023-03-12T12:11:51.052Z,135.00
2023-03-12T12:15:39.080Z,14.98
2023-03-12T12:19:48.014Z,8.63
2023-03-12T12:23:41.810Z,15.07
2023-03-12T12:27:24.492Z,3.80
2023-03-12T12:31:30.227Z,2.75
2023-03-12T12:35:14.261Z,3.42
2023-03-12T12:38:44.263Z,4.68
2023-03-12T12:42:20.943Z,3.20
2023-03-12T12:45:48.507Z,4.10
2023-03-12T12:49:19.545Z,6.85
2023-03-12T12:52:42.386Z,6.05
2023-03-12T12:56:18.302Z,3.78
2023-03-12T13:00:04.775Z,3.35
2023-03-12T13:03:30.463Z,3.25
2023-03-12T13:07:25.830Z,3.78
2023-03-12T13:10:57.876Z,3.25
2023-03-12T13:14:40.646Z,4.22
2023-03-12T13:18:29.037Z,3.67
2023-03-12T13:22:37.686Z,3.17
2023-03-12T13:26:40.578Z,2.90
2023-03-12T13:30:46.995Z,3.97
2023-03-12T13:34:17.822Z,4.32
2023-03-12T13:38:01.025Z,3.95
2023-03-12T13:41:40.961Z,3.53
2023-03-12T13:45:26.106Z,3.28
2023-03-12T13:48:50.150Z,3.38
2023-03-12T13:52:25.846Z,31.35
2023-03-12T13:56:29.021Z,56.38
2023-03-12T13:59:52.735Z,580.47
2023-03-12T14:03:24.924Z,999.90
2023-03-12T14:07:38.457Z,542.95
2023-03-12T14:11:42.916Z,999.90
2023-03-12T14:15:23.693Z,855.15
2023-03-12T14:18:47.438Z,974.83
2023-03-12T14:22:13.862Z,144.93
2023-03-12T14:25:41.861Z,24.50
2023-03-12T14:29:15.180Z,16.15
2023-03-12T14:32:38.741Z,18.42
2023-03-12T14:36:16.808Z,11.63
2023-03-12T14:40:18.362Z,7.30
2023-03-12T14:43:43.351Z,3.47
2023-03-12T14:47:17.421Z,2.80
2023-03-12T14:50:41.173Z,3.53
2023-03-12T14:54:04.199Z,3.45
2023-03-12T14:57:26.816Z,2.50
2023-03-12T15:01:06.687Z,2.33
2023-03-12T15:04:33.391Z,3.67
2023-03-12T15:08:18.166Z,2.22
2023-03-12T15:11:41.141Z,2.60
2023-03-12T15:15:28.447Z,2.70
2023-03-12T15:18:51.266Z,3.25
2023-03-12T15:22:27.713Z,3.58
2023-03-12T15:26:28.524Z,2.92
2023-03-12T15:29:52.752Z,3.20
2023-03-12T15:33:18.911Z,3.08
2023-03-12T15:36:49.814Z,2.72
2023-03-12T15:40:21.794Z,2.83
2023-03-12T15:43:52.845Z,2.92
2023-03-12T15:47:25.737Z,2.33
2023-03-12T15:50:47.794Z,3.70
2023-03-12T15:54:18.684Z,2.67
2023-03-12T15:57:53.672Z,2.13
2023-03-12T16:01:23.872Z,3.13
2023-03-12T16:04:45.738Z,2.85
2023-03-12T16:08:20.731Z,2.95
2023-03-12T16:11:43.213Z,2.47
2023-03-12T16:15:06.776Z,2.50
2023-03-12T16:18:28.592Z,2.08
2023-03-12T16:21:51.406Z,2.35
2023-03-12T16:25:14.368Z,2.55
2023-03-12T16:28:37.238Z,2.50
2023-03-12T16:32:00.085Z,2.30
2023-03-12T16:35:31.829Z,2.05
2023-03-12T16:38:54.701Z,2.50
2023-03-12T16:42:19.435Z,2.83
2023-03-12T16:45:45.473Z,2.85
2023-03-12T16:49:18.035Z,2.45
2023-03-12T16:52:41.113Z,7.38
2023-03-12T16:56:06.596Z,243.27
2023-03-12T16:59:38.038Z,15.13
2023-03-12T17:03:06.461Z,4.70
2023-03-12T17:06:29.330Z,234.07
2023-03-12T17:09:52.465Z,68.90
2023-03-12T17:13:26.027Z,527.30
2023-03-12T17:16:54.220Z,999.90
2023-03-12T17:20:21.544Z,801.78
2023-03-12T17:23:46.692Z,999.90
2023-03-12T17:27:08.803Z,999.90
2023-03-12T17:30:32.071Z,999.90
2023-03-12T17:33:53.915Z,999.90
2023-03-12T17:37:15.746Z,552.75
2023-03-12T17:40:42.936Z,999.90
2023-03-12T17:44:06.968Z,55.65
2023-03-12T17:47:30.980Z,999.90
2023-03-12T17:50:55.029Z,999.90
2023-03-12T17:54:18.918Z,362.10
2023-03-12T17:57:40.992Z,999.90
2023-03-12T18:01:04.042Z,999.90
2023-03-12T18:04:25.969Z,999.90
2023-03-12T18:07:50.383Z,999.90
2023-03-12T18:11:14.385Z,999.90
2023-03-12T18:14:36.347Z,999.90
2023-03-12T18:17:58.709Z,999.90
2023-03-12T18:21:20.549Z,999.90
2023-03-12T18:24:43.435Z,999.90
2023-03-12T18:28:05.743Z,999.90
2023-03-12T18:31:28.657Z,488.73
2023-03-12T18:34:53.092Z,771.28
2023-03-12T18:38:16.088Z,804.35
2023-03-12T18:41:39.846Z,632.13
2023-03-12T18:45:02.810Z,999.90
2023-03-12T18:48:25.712Z,999.90
2023-03-12T18:51:53.281Z,999.90
2023-03-12T18:55:15.646Z,999.90
2023-03-12T18:58:37.865Z,999.90
2023-03-12T19:02:00.065Z,541.28
2023-03-12T19:05:21.927Z,648.40
2023-03-12T19:08:44.278Z,936.20
2023-03-12T19:12:06.324Z,870.83
2023-03-12T19:15:28.335Z,210.73
2023-03-12T19:18:50.983Z,12.43
2023-03-12T19:22:12.770Z,3.13
2023-03-12T19:25:34.574Z,2.88
2023-03-12T19:29:02.185Z,2.47
2023-03-12T19:32:27.710Z,2.75
2023-03-12T19:35:57.402Z,2.55
2023-03-12T19:39:21.560Z,2.42
2023-03-12T19:42:43.530Z,2.30
2023-03-12T19:46:05.563Z,3.05
2023-03-12T19:49:27.399Z,2.78
2023-03-12T19:52:49.222Z,2.65
2023-03-12T19:56:11.076Z,2.80
2023-03-12T19:59:32.872Z,3.13
2023-03-12T20:02:54.827Z,3.05
2023-03-12T20:06:16.783Z,2.47
2023-03-12T20:09:38.785Z,2.72
2023-03-12T20:13:00.677Z,2.95
2023-03-12T20:16:22.729Z,2.63
2023-03-12T20:19:44.697Z,4.13
2023-03-12T20:23:08.429Z,3.05
2023-03-12T20:26:30.518Z,3.17
2023-03-12T20:29:52.450Z,3.00
2023-03-12T20:33:14.878Z,2.97
2023-03-12T20:36:37.781Z,3.35
2023-03-12T20:40:02.680Z,3.55
2023-03-12T20:43:24.607Z,3.35
2023-03-12T20:46:47.894Z,3.97
2023-03-12T20:50:10.730Z,3.17
2023-03-12T20:53:32.607Z,2.58
2023-03-12T20:56:54.370Z,2.50
2023-03-12T21:00:16.778Z,3.47
2023-03-12T21:03:38.580Z,3.67
2023-03-12T21:07:00.541Z,3.92
2023-03-12T21:10:22.322Z,3.05
2023-03-12T21:13:44.165Z,3.00
2023-03-12T21:17:06.001Z,3.10
2023-03-12T21:20:27.965Z,3.33
2023-03-12T21:23:49.871Z,2.72
2023-03-12T21:27:12.905Z,3.35
2023-03-12T21:30:35.004Z,3.47
2023-03-12T21:33:58.141Z,4.15
2023-03-12T21:37:20.124Z,3.63
2023-03-12T21:40:41.932Z,3.63
2023-03-12T21:44:04.938Z,3.70
2023-03-12T21:47:26.936Z,3.22
2023-03-12T21:50:48.752Z,2.92
2023-03-12T21:54:11.155Z,2.83
2023-03-12T21:57:33.268Z,3.80
2023-03-12T22:01:13.310Z,2.75
2023-03-12T22:04:35.229Z,3.10
2023-03-12T22:07:57.060Z,3.08
2023-03-12T22:11:19.133Z,3.45
2023-03-12T22:14:40.937Z,3.10
2023-03-12T22:18:02.798Z,2.58
2023-03-12T22:21:25.313Z,2.22
2023-03-12T22:24:47.155Z,2.20
2023-03-12T22:28:09.171Z,2.45
2023-03-12T22:31:31.147Z,3.05
2023-03-12T22:34:53.010Z,2.97
2023-03-12T22:38:15.443Z,2.92
2023-03-12T22:41:37.238Z,3.05
2023-03-12T22:44:59.159Z,3.08
2023-03-12T22:48:20.996Z,2.65
2023-03-12T22:51:42.794Z,2.30
2023-03-12T22:55:07.297Z,3.03
2023-03-12T22:58:29.943Z,2.72
2023-03-12T23:01:53.850Z,2.78
2023-03-12T23:05:15.726Z,2.20
2023-03-12T23:08:37.970Z,2.72
2023-03-12T23:12:03.961Z,2.08
2023-03-12T23:15:31.966Z,2.30
2023-03-12T23:19:02.195Z,2.40
2023-03-12T23:22:26.643Z,1.90
2023-03-12T23:25:57.420Z,2.30
2023-03-12T23:29:19.273Z,2.20
2023-03-12T23:32:41.261Z,2.85
2023-03-12T23:36:12.168Z,4.03
2023-03-12T23:39:42.083Z,3.15
2023-03-12T23:43:10.236Z,2.88
2023-03-12T23:46:34.355Z,2.55
2023-03-12T23:49:56.148Z,1.95
2023-03-12T23:53:18.003Z,2.50
2023-03-12T23:56:42.457Z,2.63
